createdAt,value
2022-10-19T00:02:03.266Z,50.40
2022-10-19T00:04:30.773Z,51.20
2022-10-19T00:07:15.647Z,50.63
2022-10-19T00:09:43.907Z,51.15
2022-10-19T00:12:13.736Z,50.65
2022-10-19T00:15:43.959Z,51.85
2022-10-19T00:18:11.524Z,51.40
2022-10-19T00:20:38.867Z,52.67
2022-10-19T00:23:08.371Z,49.75
2022-10-19T00:25:38.077Z,50.75
2022-10-19T00:28:05.468Z,51.03
2022-10-19T00:33:32.973Z,51.00
2022-10-19T00:36:05.075Z,51.83
2022-10-19T00:38:33.010Z,50.83
2022-10-19T00:41:32.782Z,52.30
2022-10-19T00:47:23.656Z,50.88
2022-10-19T00:50:18.644Z,51.20
2022-10-19T00:55:46.785Z,51.65
2022-10-19T00:58:14.427Z,52.10
2022-10-19T01:00:41.726Z,51.38
2022-10-19T01:03:19.064Z,51.30
2022-10-19T01:06:37.244Z,50.72
2022-10-19T01:09:14.925Z,51.40
2022-10-19T01:12:02.423Z,49.38
2022-10-19T01:15:37.843Z,50.25
2022-10-19T01:18:49.876Z,51.15
2022-10-19T01:21:26.262Z,53.03
2022-10-19T01:23:53.458Z,51.15
2022-10-19T01:27:38.072Z,50.70
2022-10-19T01:31:05.121Z,50.85
2022-10-19T01:34:15.866Z,52.67
2022-10-19T01:37:06.668Z,52.40
2022-10-19T01:39:49.781Z,51.22
2022-10-19T01:43:11.410Z,52.17
2022-10-19T01:45:41.470Z,50.67
2022-10-19T01:48:17.484Z,52.92
2022-10-19T01:51:16.256Z,50.13
2022-10-19T01:57:42.287Z,54.08
2022-10-19T02:00:53.993Z,51.90
2022-10-19T02:07:24.781Z,49.42
2022-10-19T02:10:43.022Z,53.08
2022-10-19T02:13:19.404Z,50.30
2022-10-19T02:16:22.866Z,50.35
2022-10-19T02:18:53.115Z,49.70
2022-10-19T02:24:19.631Z,49.83
2022-10-19T02:27:14.776Z,48.08
2022-10-19T02:29:45.891Z,48.30
2022-10-19T02:32:14.746Z,48.85
2022-10-19T02:34:42.459Z,50.08
2022-10-19T02:37:23.434Z,50.25
2022-10-19T02:40:01.489Z,48.53
2022-10-19T02:45:08.791Z,47.30
2022-10-19T02:48:13.271Z,47.65
2022-10-19T02:50:44.833Z,48.03
2022-10-19T02:53:12.193Z,49.55
2022-10-19T02:55:43.388Z,49.13
2022-10-19T02:59:08.110Z,48.67
2022-10-19T03:01:38.442Z,48.95
2022-10-19T03:04:05.868Z,49.30
2022-10-19T03:06:33.584Z,49.92
2022-10-19T03:09:00.897Z,47.28
2022-10-19T03:12:50.135Z,50.30
2022-10-19T03:15:18.584Z,49.28
2022-10-19T03:17:47.438Z,49.22
2022-10-19T03:20:20.930Z,51.97
2022-10-19T03:23:16.199Z,48.55
2022-10-19T03:25:43.619Z,49.35
2022-10-19T03:28:13.915Z,49.42
2022-10-19T03:30:41.141Z,51.22
2022-10-19T03:33:10.559Z,49.40
2022-10-19T03:36:19.071Z,51.92
2022-10-19T03:38:55.175Z,52.75
2022-10-19T03:41:24.419Z,52.58
2022-10-19T03:44:22.040Z,53.85
2022-10-19T03:46:51.467Z,50.13
2022-10-19T03:52:49.747Z,52.80
2022-10-19T03:55:20.197Z,51.28
2022-10-19T03:57:47.480Z,50.40
2022-10-19T04:00:58.890Z,52.45
2022-10-19T04:03:26.537Z,50.38
2022-10-19T04:06:08.395Z,51.45
2022-10-19T04:08:38.093Z,50.65
2022-10-19T04:11:12.798Z,51.42
2022-10-19T04:13:42.474Z,51.90
2022-10-19T04:16:14.010Z,50.78
2022-10-19T04:18:41.329Z,51.33
2022-10-19T04:21:29.724Z,50.97
2022-10-19T04:24:10.485Z,52.25
2022-10-19T04:27:26.314Z,50.58
2022-10-19T04:29:53.713Z,51.70
2022-10-19T04:42:59.131Z,49.90
2022-10-19T04:45:31.125Z,50.00
2022-10-19T04:48:06.745Z,50.17
2022-10-19T04:50:50.783Z,47.75
2022-10-19T04:55:53.145Z,49.40
2022-10-19T04:58:20.965Z,49.08
2022-10-19T05:00:48.317Z,49.88
2022-10-19T05:10:12.265Z,50.08
2022-10-19T05:12:39.591Z,48.85
2022-10-19T05:24:23.176Z,50.03
2022-10-19T05:27:14.140Z,50.80
2022-10-19T05:29:43.681Z,49.90
2022-10-19T05:32:18.178Z,49.88
2022-10-19T05:34:45.482Z,48.20
2022-10-19T05:37:26.417Z,34.60
2022-10-19T05:39:55.677Z,48.65
2022-10-19T05:42:23.004Z,46.53
2022-10-19T05:44:52.918Z,48.33
2022-10-19T05:47:26.173Z,46.60
2022-10-19T05:50:02.062Z,47.03
2022-10-19T05:52:31.566Z,49.03
2022-10-19T05:55:01.365Z,48.17
2022-10-19T05:57:28.699Z,47.60
2022-10-19T05:59:58.809Z,46.92
2022-10-19T06:02:44.558Z,45.28
2022-10-19T06:08:54.335Z,37.90
2022-10-19T06:11:25.256Z,38.30
2022-10-19T06:14:40.796Z,39.10
2022-10-19T06:17:12.604Z,36.75
2022-10-19T06:19:39.885Z,41.13
2022-10-19T06:22:07.254Z,40.10
2022-10-19T06:28:40.239Z,34.58
2022-10-19T06:31:13.433Z,40.47
2022-10-19T06:33:47.228Z,38.47
2022-10-19T06:36:24.929Z,35.25
2022-10-19T06:43:42.764Z,37.20
2022-10-19T06:46:24.151Z,37.63
2022-10-19T06:49:01.909Z,40.90
2022-10-19T06:59:34.999Z,39.72
2022-10-19T07:02:02.351Z,40.72
2022-10-19T07:04:31.194Z,41.25
2022-10-19T07:06:58.707Z,42.10
2022-10-19T07:09:26.033Z,43.28
2022-10-19T07:12:00.820Z,40.85
2022-10-19T07:14:55.598Z,40.17
2022-10-19T07:17:30.445Z,42.55
2022-10-19T07:20:03.953Z,42.33
2022-10-19T07:22:31.864Z,41.45
2022-10-19T07:25:22.071Z,42.38
2022-10-19T07:27:51.890Z,39.70
2022-10-19T07:30:52.661Z,39.55
2022-10-19T07:33:20.173Z,40.28
2022-10-19T07:36:53.101Z,40.80
2022-10-19T07:39:23.223Z,39.22
2022-10-19T07:41:53.144Z,38.95
2022-10-19T07:44:20.736Z,39.88
2022-10-19T07:46:50.344Z,40.08
2022-10-19T07:53:11.848Z,41.60
2022-10-19T07:56:15.257Z,41.70
2022-10-19T07:58:43.072Z,40.28
2022-10-19T08:01:13.572Z,40.85
2022-10-19T08:07:23.546Z,38.97
2022-10-19T08:10:04.199Z,42.88
2022-10-19T08:12:42.480Z,38.80
2022-10-19T08:15:23.840Z,38.03
2022-10-19T08:17:51.895Z,41.03
2022-10-19T08:20:19.696Z,34.63
2022-10-19T08:22:46.997Z,36.75
2022-10-19T08:25:14.370Z,37.92
2022-10-19T08:27:41.806Z,42.15
2022-10-19T08:30:09.605Z,41.28
2022-10-19T08:32:37.989Z,42.65
2022-10-19T08:40:05.773Z,40.90
2022-10-19T08:42:48.843Z,37.28
2022-10-19T08:45:39.235Z,36.15
2022-10-19T08:52:13.928Z,40.67
2022-10-19T08:54:49.643Z,38.75
2022-10-19T08:57:47.781Z,44.63
2022-10-19T09:00:25.818Z,45.60
2022-10-19T09:03:27.169Z,40.38
2022-10-19T09:06:44.955Z,46.25
2022-10-19T09:12:55.146Z,41.00
2022-10-19T09:15:42.077Z,38.05
2022-10-19T09:18:25.487Z,41.78
2022-10-19T09:21:12.428Z,43.38
2022-10-19T09:23:44.551Z,45.67
2022-10-19T09:26:23.657Z,46.53
2022-10-19T09:29:08.204Z,43.20
2022-10-19T09:31:40.917Z,41.40
2022-10-19T09:34:18.316Z,43.60
2022-10-19T09:36:52.318Z,43.58
2022-10-19T09:39:20.299Z,44.95
2022-10-19T09:42:03.247Z,44.20
2022-10-19T09:45:11.956Z,40.42
2022-10-19T09:47:42.495Z,44.85
2022-10-19T09:50:41.721Z,43.53
2022-10-19T09:53:21.770Z,45.25
2022-10-19T09:56:16.930Z,45.97
2022-10-19T09:58:53.162Z,44.78
2022-10-19T10:01:43.116Z,44.83
2022-10-19T10:04:16.339Z,43.70
2022-10-19T10:06:46.695Z,44.85
2022-10-19T10:09:19.376Z,42.50
2022-10-19T10:11:49.745Z,41.90
2022-10-19T10:14:25.170Z,42.33
2022-10-19T10:17:54.445Z,40.58
2022-10-19T10:20:32.149Z,39.00
2022-10-19T10:23:04.834Z,41.15
2022-10-19T10:25:36.648Z,42.15
2022-10-19T10:28:21.901Z,42.88
2022-10-19T10:30:54.790Z,44.10
2022-10-19T10:33:40.291Z,37.78
2022-10-19T10:36:14.422Z,45.35
2022-10-19T10:38:51.831Z,46.35
2022-10-19T10:45:53.207Z,44.33
2022-10-19T10:49:38.863Z,45.95
2022-10-19T10:56:23.110Z,50.08
2022-10-19T10:58:58.726Z,43.13
2022-10-19T11:04:43.204Z,50.95
2022-10-19T11:07:19.770Z,52.20
2022-10-19T11:12:24.012Z,47.95
2022-10-19T11:15:22.205Z,49.78
2022-10-19T11:18:02.177Z,49.55
2022-10-19T11:20:32.374Z,49.20
2022-10-19T11:23:07.505Z,52.13
2022-10-19T11:25:49.319Z,47.42
2022-10-19T11:35:46.198Z,47.55
2022-10-19T11:38:31.867Z,53.70
2022-10-19T11:41:26.701Z,49.97
2022-10-19T11:44:25.984Z,51.92
2022-10-19T11:48:03.204Z,47.00
2022-10-19T11:50:54.269Z,45.05
2022-10-19T11:53:49.211Z,47.60
2022-10-19T11:56:58.166Z,47.88
2022-10-19T11:59:53.442Z,46.42
2022-10-19T12:03:01.550Z,45.72
2022-10-19T12:05:40.370Z,48.75
2022-10-19T12:08:13.346Z,49.08
2022-10-19T12:10:53.414Z,48.72
2022-10-19T12:13:27.588Z,46.03
2022-10-19T12:19:48.056Z,50.15
2022-10-19T12:22:19.314Z,48.07
2022-10-19T12:24:47.880Z,45.83
2022-10-19T12:27:18.378Z,46.25
2022-10-19T12:29:49.643Z,47.60
2022-10-19T12:32:23.836Z,43.08
2022-10-19T12:38:06.479Z,43.95
2022-10-19T12:40:50.048Z,47.70
2022-10-19T12:43:44.280Z,44.08
2022-10-19T12:54:39.883Z,42.58
2022-10-19T12:57:29.413Z,44.95
2022-10-19T13:00:18.726Z,44.40
2022-10-19T13:02:48.273Z,47.13
2022-10-19T13:05:26.450Z,47.83
2022-10-19T13:07:54.310Z,47.20
2022-10-19T13:10:27.182Z,46.60
2022-10-19T13:12:55.262Z,46.95
2022-10-19T13:15:35.480Z,43.58
2022-10-19T13:18:05.357Z,44.08
2022-10-19T13:20:33.823Z,44.40
2022-10-19T13:23:02.207Z,41.53
2022-10-19T13:29:25.482Z,41.35
2022-10-19T13:31:52.896Z,41.97
2022-10-19T13:34:45.481Z,42.90
2022-10-19T13:37:36.515Z,41.88
2022-10-19T13:40:23.617Z,42.97
2022-10-19T13:42:58.627Z,42.70
2022-10-19T13:46:12.909Z,39.70
2022-10-19T13:49:01.591Z,39.05
2022-10-19T13:56:20.128Z,37.42
2022-10-19T14:02:03.036Z,39.17
2022-10-19T14:04:44.361Z,37.70
2022-10-19T14:07:19.235Z,38.80
2022-10-19T14:09:55.547Z,42.42
2022-10-19T14:13:23.175Z,40.45
2022-10-19T14:19:03.439Z,38.33
2022-10-19T14:21:36.967Z,39.88
2022-10-19T14:27:07.764Z,39.92
2022-10-19T14:29:47.380Z,37.30
2022-10-19T14:32:15.458Z,38.38
2022-10-19T14:38:01.060Z,37.83
2022-10-19T14:40:31.797Z,37.47
2022-10-19T14:43:02.809Z,37.20
2022-10-19T14:45:33.294Z,39.60
2022-10-19T14:48:17.100Z,40.47
2022-10-19T14:50:56.611Z,39.55
2022-10-19T14:53:37.075Z,37.58
2022-10-19T15:07:43.022Z,38.08
2022-10-19T15:10:44.165Z,37.50
2022-10-19T15:13:25.451Z,36.28
2022-10-19T15:15:56.128Z,38.88
2022-10-19T15:22:46.587Z,36.75
2022-10-19T15:25:37.081Z,38.33
2022-10-19T15:28:55.465Z,35.33
2022-10-19T15:31:28.664Z,36.40
2022-10-19T15:34:05.661Z,36.22
2022-10-19T15:36:33.482Z,37.67
2022-10-19T15:39:25.199Z,38.40
2022-10-19T15:42:22.731Z,37.20
2022-10-19T15:44:50.117Z,36.35
2022-10-19T15:47:20.131Z,38.95
2022-10-19T15:49:53.637Z,37.90
2022-10-19T15:52:23.482Z,36.45
2022-10-19T15:54:52.563Z,36.47
2022-10-19T15:57:28.795Z,36.15
2022-10-19T15:59:58.038Z,36.10
2022-10-19T16:02:25.477Z,36.35
2022-10-19T16:05:34.001Z,35.95
2022-10-19T16:08:03.452Z,34.55
2022-10-19T16:10:32.708Z,35.65
2022-10-19T16:13:24.433Z,34.47
2022-10-19T16:16:01.423Z,34.78
2022-10-19T16:19:07.252Z,32.70
2022-10-19T16:21:37.241Z,34.17
2022-10-19T16:24:05.221Z,35.47
2022-10-19T16:26:32.871Z,34.90
2022-10-19T16:29:02.177Z,37.03
2022-10-19T16:31:29.479Z,34.72
2022-10-19T16:33:56.852Z,35.50
2022-10-19T16:36:24.160Z,35.15
2022-10-19T16:45:11.548Z,37.33
2022-10-19T16:47:39.124Z,37.42
2022-10-19T16:50:06.977Z,37.60
2022-10-19T16:52:37.661Z,37.90
2022-10-19T16:55:06.115Z,38.55
2022-10-19T16:57:33.696Z,37.67
2022-10-19T17:12:49.568Z,38.45
2022-10-19T17:15:41.345Z,38.80
2022-10-19T17:18:24.678Z,37.92
2022-10-19T17:20:52.181Z,39.03
2022-10-19T17:27:23.016Z,41.13
2022-10-19T17:29:50.693Z,39.38
2022-10-19T17:32:51.154Z,39.58
2022-10-19T17:35:21.659Z,36.33
2022-10-19T17:38:33.138Z,38.78
2022-10-19T17:41:28.473Z,39.97
2022-10-19T17:43:56.481Z,40.83
2022-10-19T17:46:27.800Z,41.22
2022-10-19T17:48:56.389Z,42.58
2022-10-19T17:51:29.815Z,39.63
2022-10-19T17:54:00.590Z,41.83
2022-10-19T17:56:28.469Z,37.97
2022-10-19T17:58:57.258Z,39.65
2022-10-19T18:01:30.776Z,40.50
2022-10-19T18:04:09.908Z,40.13
2022-10-19T18:06:40.190Z,39.05
2022-10-19T18:09:11.088Z,40.35
2022-10-19T18:11:48.634Z,38.88
2022-10-19T18:14:40.670Z,40.33
2022-10-19T18:17:10.683Z,38.53
2022-10-19T18:19:38.656Z,38.53
2022-10-19T18:22:11.621Z,38.65
2022-10-19T18:25:07.558Z,39.53
2022-10-19T18:28:00.501Z,39.00
2022-10-19T18:30:29.014Z,37.90
2022-10-19T18:32:56.647Z,42.38
2022-10-19T18:35:25.383Z,41.20
2022-10-19T18:37:53.219Z,40.75
2022-10-19T18:40:20.681Z,40.40
2022-10-19T18:47:04.774Z,45.00
2022-10-19T18:53:08.379Z,46.08
2022-10-19T18:55:40.688Z,47.40
2022-10-19T18:58:11.226Z,44.58
2022-10-19T19:00:43.368Z,47.00
2022-10-19T19:03:12.965Z,45.85
2022-10-19T19:11:48.922Z,46.22
2022-10-19T19:14:21.176Z,48.67
2022-10-19T19:16:51.243Z,47.85
2022-10-19T19:19:39.740Z,46.35
2022-10-19T19:22:08.745Z,44.92
2022-10-19T19:28:10.049Z,43.90
2022-10-19T19:30:46.544Z,41.28
2022-10-19T19:33:15.229Z,41.67
2022-10-19T19:35:52.721Z,41.50
2022-10-19T19:42:34.047Z,40.50
2022-10-19T19:45:10.831Z,41.40
2022-10-19T19:47:41.285Z,40.97
2022-10-19T19:50:11.507Z,41.00
2022-10-19T19:53:18.267Z,41.20
2022-10-19T19:55:49.568Z,41.85
2022-10-19T20:02:02.072Z,39.05
2022-10-19T20:04:58.736Z,39.75
2022-10-19T20:07:29.077Z,39.03
2022-10-19T20:10:49.754Z,38.70
2022-10-19T20:13:17.236Z,36.33
2022-10-19T20:15:46.182Z,35.85
2022-10-19T20:18:13.576Z,37.08
2022-10-19T20:20:54.418Z,35.15
2022-10-19T20:23:22.008Z,33.88
2022-10-19T20:25:53.564Z,34.60
2022-10-19T20:28:21.027Z,34.60
2022-10-19T20:30:50.512Z,36.13
2022-10-19T20:33:17.941Z,34.25
2022-10-19T20:36:39.201Z,34.72
2022-10-19T20:39:11.972Z,33.50
2022-10-19T20:41:51.211Z,33.17
2022-10-19T20:45:10.033Z,32.13
2022-10-19T20:47:42.226Z,31.77
2022-10-19T20:50:40.484Z,32.55
2022-10-19T20:53:09.471Z,30.55
2022-10-19T20:56:13.686Z,31.75
2022-10-19T20:58:43.436Z,30.13
2022-10-19T21:01:14.018Z,30.33
2022-10-19T21:04:01.385Z,30.55
2022-10-19T21:06:31.391Z,28.60
2022-10-19T21:09:00.206Z,28.55
2022-10-19T21:11:41.373Z,26.70
2022-10-19T21:14:22.373Z,26.90
2022-10-19T21:17:01.553Z,24.75
2022-10-19T21:19:49.215Z,26.05
2022-10-19T21:22:42.596Z,25.25
2022-10-19T21:25:22.490Z,23.38
2022-10-19T21:28:40.231Z,24.67
2022-10-19T21:31:09.345Z,25.63
2022-10-19T21:33:39.318Z,23.65
2022-10-19T21:39:20.595Z,23.42
2022-10-19T21:41:49.227Z,24.10
2022-10-19T21:55:59.743Z,22.63
2022-10-19T21:58:27.050Z,25.20
2022-10-19T22:01:41.146Z,24.95
2022-10-19T22:04:15.996Z,25.55
2022-10-19T22:06:43.984Z,24.75
2022-10-19T22:09:23.195Z,25.17
2022-10-19T22:11:51.072Z,25.90
2022-10-19T22:14:18.836Z,25.88
2022-10-19T22:16:46.690Z,24.25
2022-10-19T22:19:18.787Z,22.35
2022-10-19T22:21:46.336Z,22.13
2022-10-19T22:24:16.464Z,23.05
2022-10-19T22:26:47.053Z,22.00
2022-10-19T22:29:14.919Z,21.45
2022-10-19T22:31:42.403Z,22.05
2022-10-19T22:34:12.930Z,21.83
2022-10-19T22:43:43.408Z,20.60
2022-10-19T22:47:26.527Z,21.45
2022-10-19T22:51:21.388Z,21.38
2022-10-19T22:54:07.415Z,18.85
2022-10-19T22:56:34.843Z,21.08
2022-10-19T22:59:04.998Z,19.98
2022-10-19T23:01:32.803Z,20.73
2022-10-19T23:04:00.146Z,21.83
2022-10-19T23:06:27.525Z,21.17
2022-10-19T23:08:56.383Z,20.02
2022-10-19T23:15:40.363Z,22.90
2022-10-19T23:18:11.768Z,21.10
2022-10-19T23:20:39.173Z,22.83
2022-10-19T23:23:07.132Z,23.40
2022-10-19T23:25:34.506Z,22.40
2022-10-19T23:28:02.018Z,23.48
2022-10-19T23:30:31.533Z,23.55
2022-10-19T23:40:59.993Z,23.30
2022-10-19T23:43:28.886Z,23.13
2022-10-19T23:46:00.329Z,22.92
2022-10-19T23:48:29.107Z,23.45
2022-10-19T23:55:22.910Z,21.85
2022-10-19T23:57:52.739Z,22.98
